Mingo, West Virginia
Current Conditions -  °F | °C
As of 10:15 AM on Wednesday 22 Oct 2014 (Local Time) from KEKN Reporting Station
Light Rain Light Rain  
Wind Chill:   Ceiling: 500
Heat Index:   Visibility: 4mi
Dew Point:   Wind: 8mph
Humidity: 100%   Direction: 350°N
Pressure: 30.12"   Gusts: NA
Location:  38.5201°N, 80.0382°W
Report Text: KEKN 221415Z AUTO 35007KT 4SM -RA BR OVC005 07/07 A3012 RMK AO2 RAB1353 P0000 T00720072 TSNO
Loading
Personal Weather Stations






























Interactive Weather Map
Tropical Storm Tracking
New forecast layout! Learn more

10-Day Weather Forecast

Advertisements
Track Severe Weather on mobile